Weather at Horse Heaven Airport

Public forecast

Using degrees Fahrenheit for public forecast. Weather courtesy of forecast.io.

Closest aviation weather report (METAR) to Horse Heaven Airport

Closest report is Coeur D'Alene - Pappy Boyington Field, 13.4 nm (24.8 km) WSW. Retrieved 2021/07/24 22:56 UTC (16 minutes ago):

KCOE 242256Z AUTO VRB04KT 8SM CLR 32/03 A3006 RMK AO2 SLP174 T03220028

Closest aviation forecast (TAF) to Horse Heaven Airport

Closest forecast is Coeur D'Alene - Pappy Boyington Field, 13.4 nm (24.8 km) WSW. Retrieved 2021/07/24 18:57 UTC (4 hours ago):

TAF KCOE 241755Z 2418/2518 09003KT P6SM SKC FM242100 23006KT P6SM SKC FM250200 15005KT P6SM SKC FM251745 20006KT P6SM SKC